createdAt,value
2023-01-11T00:01:12.086Z,102688.75
2023-01-11T00:06:14.195Z,102686.09
2023-01-11T00:11:17.436Z,102685.19
2023-01-11T00:16:19.544Z,102689.53
2023-01-11T00:21:22.718Z,102670.97
2023-01-11T00:26:24.836Z,102678.91
2023-01-11T00:31:26.988Z,102683.41
2023-01-11T00:36:29.186Z,102670.22
2023-01-11T00:41:49.627Z,102674.59
2023-01-11T00:47:10.531Z,102674.59
2023-01-11T00:52:12.735Z,102675.44
2023-01-11T00:57:14.787Z,102672.78
2023-01-11T01:02:16.917Z,102667.63
2023-01-11T01:07:19.006Z,102669.41
2023-01-11T01:12:39.685Z,102656.16
2023-01-11T01:17:41.831Z,102655.22
2023-01-11T01:22:44.045Z,102660.53
2023-01-11T01:27:46.253Z,102661.44
2023-01-11T01:32:48.373Z,102642.03
2023-01-11T01:37:50.456Z,102650.00
2023-01-11T01:42:55.755Z,102649.13
2023-01-11T01:48:06.196Z,102638.47
2023-01-11T01:53:16.304Z,102619.34
2023-01-11T01:58:23.487Z,102620.84
2023-01-11T02:03:27.256Z,102606.91
2023-01-11T02:08:43.409Z,102613.06
2023-01-11T02:13:46.371Z,102613.91
2023-01-11T02:18:48.573Z,102604.16
2023-01-11T02:24:10.599Z,102595.38
2023-01-11T02:29:15.747Z,102597.28
2023-01-11T02:34:32.661Z,102599.00
2023-01-11T02:40:07.331Z,102601.72
2023-01-11T02:45:31.260Z,102600.00
2023-01-11T02:50:54.094Z,102589.34
2023-01-11T02:56:00.270Z,102591.06
2023-01-11T03:01:03.643Z,102590.16
2023-01-11T03:06:11.846Z,102569.88
2023-01-11T03:11:56.529Z,102579.66
2023-01-11T03:17:22.562Z,102575.28
2023-01-11T03:22:45.729Z,102571.72
2023-01-11T03:27:53.173Z,102563.72
2023-01-11T03:33:01.457Z,102554.03
2023-01-11T03:38:20.859Z,102551.56
2023-01-11T03:43:25.544Z,102551.56
2023-01-11T03:48:40.222Z,102550.63
2023-01-11T03:53:46.852Z,102547.88
2023-01-11T03:58:49.076Z,102539.94
2023-01-11T04:03:51.208Z,102532.91
2023-01-11T04:08:53.297Z,102539.22
2023-01-11T04:13:55.716Z,102541.00
2023-01-11T04:18:58.157Z,102534.78
2023-01-11T04:24:00.299Z,102517.88
2023-01-11T04:29:02.419Z,102507.28
2023-01-11T04:34:04.782Z,102513.53
2023-01-11T04:39:10.706Z,102510.09
2023-01-11T04:44:12.855Z,102507.44
2023-01-11T04:49:15.162Z,102502.16
2023-01-11T04:54:17.483Z,102506.53
2023-01-11T04:59:19.573Z,102506.53
2023-01-11T05:04:21.870Z,102509.25
2023-01-11T05:09:24.113Z,102503.13
2023-01-11T05:14:26.353Z,102501.34
2023-01-11T05:19:28.596Z,102500.44
2023-01-11T05:24:30.689Z,102496.00
2023-01-11T05:29:32.814Z,102491.56
2023-01-11T05:34:35.115Z,102491.69
2023-01-11T05:39:37.293Z,102497.06
2023-01-11T05:44:58.296Z,102497.84
2023-01-11T05:50:00.495Z,102497.78
2023-01-11T05:55:02.641Z,102480.16
2023-01-11T06:00:05.220Z,102475.78
2023-01-11T06:05:09.113Z,102476.81
2023-01-11T06:10:11.649Z,102468.00
2023-01-11T06:15:13.863Z,102468.81
2023-01-11T06:20:16.226Z,102474.00
2023-01-11T06:25:18.349Z,102473.16
2023-01-11T06:30:20.891Z,102490.91
2023-01-11T06:35:23.084Z,102501.56
2023-01-11T06:40:25.214Z,102503.34
2023-01-11T06:45:27.804Z,102505.94
2023-01-11T06:50:29.884Z,102508.53
2023-01-11T06:55:32.768Z,102517.41
2023-01-11T07:00:34.915Z,102523.63
2023-01-11T07:05:37.337Z,102521.94
2023-01-11T07:10:39.475Z,102520.97
2023-01-11T07:15:41.751Z,102522.69
2023-01-11T07:20:43.965Z,102513.88
2023-01-11T07:25:46.142Z,102508.66
2023-01-11T07:30:58.227Z,102513.16
2023-01-11T07:36:01.153Z,102506.94
2023-01-11T07:41:23.168Z,102505.13
2023-01-11T07:46:25.310Z,102506.16
2023-01-11T07:51:27.497Z,102505.13
2023-01-11T07:56:30.447Z,102505.19
2023-01-11T08:01:32.624Z,102503.50
2023-01-11T08:06:34.762Z,102500.88
2023-01-11T08:11:55.384Z,102505.19
2023-01-11T08:16:57.491Z,102499.91
2023-01-11T08:21:59.648Z,102503.41
2023-01-11T08:27:02.619Z,102486.03
2023-01-11T08:32:06.347Z,102485.97
2023-01-11T08:37:08.864Z,102484.13
2023-01-11T08:42:11.068Z,102485.81
2023-01-11T08:47:13.311Z,102487.63
2023-01-11T08:52:15.562Z,102479.69
2023-01-11T08:57:17.790Z,102466.56
2023-01-11T09:02:19.928Z,102468.28
2023-01-11T09:07:22.035Z,102469.09
2023-01-11T09:12:24.331Z,102472.56
2023-01-11T09:17:26.495Z,102487.63
2023-01-11T09:22:28.793Z,102492.97
2023-01-11T09:27:30.955Z,102499.19
2023-01-11T09:32:33.052Z,102501.84
2023-01-11T09:37:39.923Z,102506.22
2023-01-11T09:42:43.605Z,102515.88
2023-01-11T09:48:15.549Z,102525.63
2023-01-11T09:53:32.190Z,102531.03
2023-01-11T09:58:42.892Z,102526.59
2023-01-11T10:04:00.131Z,102523.16
2023-01-11T10:18:26.400Z,102539.78
2023-01-11T10:20:47.772Z,102521.19
2023-01-11T10:25:55.085Z,102528.16
2023-01-11T10:31:11.611Z,102523.88
2023-01-11T10:37:10.473Z,102520.44
2023-01-11T10:42:21.839Z,102507.13
2023-01-11T10:47:28.607Z,102507.00
2023-01-11T10:52:32.896Z,102502.56
2023-01-11T10:58:00.136Z,102504.34
2023-01-11T11:03:24.879Z,102494.69
2023-01-11T11:09:14.929Z,102501.84
2023-01-11T11:14:27.547Z,102499.13
2023-01-11T11:19:32.953Z,102493.91
2023-01-11T11:24:43.203Z,102492.91
2023-01-11T11:29:51.198Z,102495.47
2023-01-11T11:34:54.244Z,102484.81
2023-01-11T11:39:56.564Z,102481.38
2023-01-11T11:45:26.424Z,102483.25
2023-01-11T11:50:44.362Z,102473.44
2023-01-11T11:55:47.375Z,102472.50
2023-01-11T12:00:51.596Z,102467.16
2023-01-11T12:05:58.831Z,102473.25
2023-01-11T12:11:07.936Z,102465.34
2023-01-11T12:16:23.841Z,102466.28
2023-01-11T12:21:29.681Z,102470.66
2023-01-11T12:27:18.491Z,102468.06
2023-01-11T12:32:30.763Z,102466.22
2023-01-11T12:37:53.114Z,102457.41
2023-01-11T12:43:23.162Z,102459.03
2023-01-11T12:48:49.973Z,102457.25
2023-01-11T12:54:03.552Z,102444.13
2023-01-11T12:59:34.540Z,102424.63
2023-01-11T13:04:48.389Z,102426.34
2023-01-11T13:10:08.324Z,102426.34
2023-01-11T13:15:46.751Z,102415.75
2023-01-11T13:21:03.232Z,102413.91
2023-01-11T13:26:18.950Z,102410.31
2023-01-11T13:31:22.333Z,102402.38
2023-01-11T13:36:30.508Z,102391.78
2023-01-11T13:41:41.866Z,102390.84
2023-01-11T13:47:16.012Z,102393.50
2023-01-11T13:52:21.796Z,102375.16
2023-01-11T13:57:34.463Z,102388.97
2023-01-11T14:02:52.120Z,102383.69
2023-01-11T14:08:03.516Z,102396.00
2023-01-11T14:13:39.299Z,102394.22
2023-01-11T14:18:54.531Z,102406.59
2023-01-11T14:23:57.385Z,102405.59
2023-01-11T14:28:59.430Z,102398.63
2023-01-11T14:34:31.640Z,102409.16
2023-01-11T14:39:42.669Z,102403.81
2023-01-11T14:45:16.947Z,102417.06
2023-01-11T14:50:33.804Z,102415.28
2023-01-11T14:55:46.603Z,102424.91
2023-01-11T15:00:48.720Z,102425.75
2023-01-11T15:06:23.585Z,102431.16
2023-01-11T15:11:38.308Z,102445.16
2023-01-11T15:17:10.498Z,102446.09
2023-01-11T15:22:26.001Z,102448.69
2023-01-11T15:27:36.862Z,102438.94
2023-01-11T15:32:38.867Z,102436.28
2023-01-11T15:37:53.145Z,102455.69
2023-01-11T15:42:55.323Z,102458.34
2023-01-11T15:48:12.355Z,102459.28
2023-01-11T15:53:32.766Z,102471.59
2023-01-11T15:59:12.335Z,102478.69
2023-01-11T16:04:31.378Z,102492.78
2023-01-11T16:09:36.320Z,102520.13
2023-01-11T16:15:22.343Z,102517.47
2023-01-11T16:20:28.047Z,102521.91
2023-01-11T16:25:33.988Z,102536.09
2023-01-11T16:30:36.127Z,102541.31
2023-01-11T16:35:38.304Z,102533.38
2023-01-11T16:40:43.141Z,102514.91
2023-01-11T16:45:50.695Z,102518.41
2023-01-11T16:51:14.557Z,102515.75
2023-01-11T16:56:20.355Z,102521.97
2023-01-11T17:01:22.685Z,102528.09
2023-01-11T17:06:26.209Z,102544.91
2023-01-11T17:11:50.254Z,102559.88
2023-01-11T17:17:00.422Z,102568.53
2023-01-11T17:22:06.687Z,102565.97
2023-01-11T17:27:19.200Z,102581.88
2023-01-11T17:32:43.151Z,102581.13
2023-01-11T17:37:47.959Z,102589.00
2023-01-11T17:43:09.925Z,102583.78
2023-01-11T17:48:14.366Z,102594.38
2023-01-11T17:53:22.775Z,102607.56
2023-01-11T17:58:27.222Z,102608.41
2023-01-11T18:03:29.273Z,102620.66
2023-01-11T18:08:31.522Z,102618.94
2023-01-11T18:13:35.117Z,102613.72
2023-01-11T18:18:47.425Z,102625.22
2023-01-11T18:23:49.632Z,102628.81
2023-01-11T18:28:51.864Z,102642.03
2023-01-11T18:33:54.043Z,102646.41
2023-01-11T18:38:56.458Z,102664.97
2023-01-11T18:43:58.837Z,102672.84
2023-01-11T18:49:00.964Z,102678.16
2023-01-11T18:54:03.066Z,102699.41
2023-01-11T18:59:05.243Z,102703.78
2023-01-11T19:04:07.904Z,102711.78
2023-01-11T19:09:10.149Z,102717.03
2023-01-11T19:14:12.334Z,102712.66
2023-01-11T19:19:14.533Z,102721.41
2023-01-11T19:24:16.620Z,102726.59
2023-01-11T19:29:19.249Z,102724.81
2023-01-11T19:34:22.041Z,102724.91
2023-01-11T19:39:24.185Z,102722.31
2023-01-11T19:44:30.553Z,102742.59
2023-01-11T19:49:32.740Z,102746.97
2023-01-11T19:54:34.865Z,102756.63
2023-01-11T19:59:36.973Z,102754.84
2023-01-11T20:04:40.059Z,102757.56
2023-01-11T20:09:42.590Z,102758.41
2023-01-11T20:14:46.370Z,102767.31
2023-01-11T20:19:54.730Z,102766.53
2023-01-11T20:24:56.731Z,102776.22
2023-01-11T20:29:58.897Z,102782.25
2023-01-11T20:35:01.167Z,102785.75
2023-01-11T20:40:03.596Z,102785.84
2023-01-11T20:45:06.320Z,102787.63
2023-01-11T20:50:08.929Z,102794.72
2023-01-11T20:55:11.118Z,102783.19
2023-01-11T21:00:13.626Z,102810.59
2023-01-11T21:05:16.250Z,102813.25
2023-01-11T21:10:18.482Z,102809.75
2023-01-11T21:15:20.551Z,102799.09
2023-01-11T21:20:22.641Z,102806.91
2023-01-11T21:25:24.857Z,102804.31
2023-01-11T21:30:26.893Z,102803.53
2023-01-11T21:35:29.032Z,102809.75
2023-01-11T21:40:32.171Z,102817.69
2023-01-11T21:45:34.231Z,102813.25
2023-01-11T21:50:36.763Z,102814.03
2023-01-11T21:55:38.968Z,102827.47
2023-01-11T22:00:41.675Z,102827.28
2023-01-11T22:05:43.914Z,102830.88
2023-01-11T22:10:59.207Z,102825.63
2023-01-11T22:16:06.308Z,102829.09
2023-01-11T22:21:10.112Z,102844.03
2023-01-11T22:26:15.024Z,102849.34
2023-01-11T22:31:17.387Z,102853.78
2023-01-11T22:36:20.386Z,102861.72
2023-01-11T22:41:23.587Z,102851.13
2023-01-11T22:46:27.597Z,102845.97
2023-01-11T22:51:29.782Z,102868.88
2023-01-11T22:56:32.846Z,102865.44
2023-01-11T23:01:37.250Z,102879.53
2023-01-11T23:06:41.497Z,102874.25
2023-01-11T23:12:02.477Z,102869.81
2023-01-11T23:17:08.703Z,102875.09
2023-01-11T23:22:10.882Z,102868.94
2023-01-11T23:27:12.981Z,102884.78
2023-01-11T23:32:15.098Z,102876.69
2023-01-11T23:37:17.188Z,102874.97
2023-01-11T23:42:28.345Z,102873.25
2023-01-11T23:47:31.664Z,102866.25
2023-01-11T23:52:33.757Z,102869.81
2023-01-11T23:57:35.966Z,102877.75
